createdAt,value
2018-08-20T00:00:01.858Z,99317.50
2018-08-20T00:02:35.235Z,99317.64
2018-08-20T00:05:03.554Z,99314.02
2018-08-20T00:07:31.906Z,99307.97
2018-08-20T00:10:00.203Z,99310.98
2018-08-20T00:12:28.474Z,99310.63
2018-08-20T00:14:56.833Z,99320.44
2018-08-20T00:17:25.106Z,99316.44
2018-08-20T00:19:53.374Z,99315.58
2018-08-20T00:22:21.751Z,99313.43
2018-08-20T00:25:01.166Z,99311.25
2018-08-20T00:27:31.334Z,99307.38
2018-08-20T00:29:59.592Z,99307.86
2018-08-20T00:32:27.858Z,99299.05
2018-08-20T00:34:56.115Z,99305.58
2018-08-20T00:37:24.378Z,99307.86
2018-08-20T00:39:52.651Z,99309.20
2018-08-20T00:42:21.006Z,99303.52
2018-08-20T00:44:49.270Z,99310.18
2018-08-20T00:47:17.510Z,99310.80
2018-08-20T00:49:45.765Z,99311.64
2018-08-20T00:52:14.031Z,99308.13
2018-08-20T00:54:42.389Z,99304.13
2018-08-20T00:57:10.619Z,99310.31
2018-08-20T00:59:38.910Z,99304.27
2018-08-20T01:02:07.202Z,99302.94
2018-08-20T01:04:35.486Z,99299.80
2018-08-20T01:07:03.782Z,99304.74
2018-08-20T01:09:32.138Z,99302.08
2018-08-20T01:12:00.426Z,99298.56
2018-08-20T01:14:28.698Z,99299.55
2018-08-20T01:16:57.104Z,99296.89
2018-08-20T01:19:25.426Z,99297.37
2018-08-20T01:21:53.717Z,99293.38
2018-08-20T01:24:22.077Z,99292.55
2018-08-20T01:26:50.375Z,99293.03
2018-08-20T01:29:18.750Z,99294.70
2018-08-20T01:31:47.127Z,99290.36
2018-08-20T01:34:15.378Z,99298.35
2018-08-20T01:36:44.333Z,99295.34
2018-08-20T01:39:12.680Z,99287.83
2018-08-20T01:41:40.966Z,99291.83
2018-08-20T01:44:09.269Z,99292.30
2018-08-20T01:46:37.542Z,99294.97
2018-08-20T01:49:05.906Z,99289.64
2018-08-20T01:51:34.198Z,99287.97
2018-08-20T01:54:02.502Z,99283.46
2018-08-20T01:56:30.815Z,99280.94
2018-08-20T01:58:59.117Z,99271.98
2018-08-20T02:01:27.410Z,99277.45
2018-08-20T02:03:55.666Z,99273.45
2018-08-20T02:06:24.266Z,99266.92
2018-08-20T02:08:52.692Z,99270.79
2018-08-20T02:11:21.035Z,99265.09
2018-08-20T02:13:49.374Z,99265.59
2018-08-20T02:16:17.654Z,99262.42
2018-08-20T02:18:45.938Z,99261.95
2018-08-20T02:21:14.258Z,99258.08
2018-08-20T02:23:42.538Z,99258.08
2018-08-20T02:26:10.819Z,99263.03
2018-08-20T02:28:39.075Z,99260.38
2018-08-20T02:31:07.387Z,99255.55
2018-08-20T02:33:35.807Z,99252.04
2018-08-20T02:36:04.146Z,99254.70
2018-08-20T02:38:32.487Z,99256.03
2018-08-20T02:41:00.854Z,99253.50
2018-08-20T02:43:29.159Z,99251.19
2018-08-20T02:45:57.458Z,99250.36
2018-08-20T02:48:25.778Z,99249.86
2018-08-20T02:50:54.068Z,99245.99
2018-08-20T02:53:22.353Z,99245.03
2018-08-20T02:55:50.609Z,99248.17
2018-08-20T02:58:18.883Z,99238.99
2018-08-20T03:00:47.118Z,99244.19
2018-08-20T03:03:15.405Z,99238.14
2018-08-20T03:05:43.654Z,99235.85
2018-08-20T03:08:11.939Z,99238.14
2018-08-20T03:10:40.218Z,99232.81
2018-08-20T03:13:08.571Z,99228.81
2018-08-20T03:15:43.444Z,99234.14
2018-08-20T03:18:12.007Z,99241.75
2018-08-20T03:20:40.267Z,99239.91
2018-08-20T03:23:08.542Z,99237.77
2018-08-20T03:25:36.840Z,99245.23
2018-08-20T03:28:05.182Z,99240.05
2018-08-20T03:30:33.470Z,99243.09
2018-08-20T03:33:16.163Z,99243.56
2018-08-20T03:35:44.454Z,99243.70
2018-08-20T03:38:13.211Z,99238.23
2018-08-20T03:40:41.574Z,99241.38
2018-08-20T03:43:09.903Z,99242.71
2018-08-20T03:45:38.195Z,99238.37
2018-08-20T03:48:06.695Z,99244.55
2018-08-20T03:50:35.030Z,99248.03
2018-08-20T03:53:03.401Z,99246.70
2018-08-20T03:55:31.691Z,99253.36
2018-08-20T03:57:59.994Z,99256.53
2018-08-20T04:00:28.354Z,99258.21
2018-08-20T04:02:56.711Z,99266.20
2018-08-20T04:05:25.052Z,99267.43
2018-08-20T04:07:53.365Z,99270.19
2018-08-20T04:10:21.700Z,99268.01
2018-08-20T04:12:50.050Z,99275.05
2018-08-20T04:15:18.362Z,99281.70
2018-08-20T04:17:46.654Z,99272.86
2018-08-20T04:20:15.690Z,99279.52
2018-08-20T04:22:44.091Z,99271.53
2018-08-20T04:25:12.387Z,99274.19
2018-08-20T04:27:40.702Z,99276.85
2018-08-20T04:30:09.053Z,99282.66
2018-08-20T04:32:37.322Z,99283.17
2018-08-20T04:35:05.941Z,99280.98
2018-08-20T04:37:34.359Z,99283.98
2018-08-20T04:40:02.707Z,99283.17
2018-08-20T04:42:31.061Z,99285.83
2018-08-20T04:44:59.331Z,99287.16
2018-08-20T04:47:27.610Z,99287.64
2018-08-20T04:49:55.971Z,99284.97
2018-08-20T04:52:24.403Z,99286.78
2018-08-20T04:54:52.799Z,99289.45
2018-08-20T04:57:21.235Z,99292.48
2018-08-20T04:59:49.560Z,99295.62
2018-08-20T05:02:18.581Z,99297.81
2018-08-20T05:04:46.941Z,99288.59
2018-08-20T05:07:15.395Z,99292.48
2018-08-20T05:09:43.774Z,99297.56
2018-08-20T05:12:12.074Z,99294.77
2018-08-20T05:14:40.472Z,99297.44
2018-08-20T05:17:08.773Z,99295.25
2018-08-20T05:19:37.092Z,99299.23
2018-08-20T05:22:05.555Z,99299.23
2018-08-20T05:24:33.843Z,99301.56
2018-08-20T05:27:02.239Z,99305.08
2018-08-20T05:29:30.586Z,99303.75
2018-08-20T05:31:58.931Z,99306.89
2018-08-20T05:34:27.247Z,99313.55
2018-08-20T05:36:55.576Z,99310.02
2018-08-20T05:39:23.990Z,99317.54
2018-08-20T05:41:52.279Z,99310.88
2018-08-20T05:44:21.135Z,99311.36
2018-08-20T05:46:49.419Z,99316.20
2018-08-20T05:49:17.695Z,99314.87
2018-08-20T05:51:46.047Z,99312.69
2018-08-20T05:54:14.335Z,99318.52
2018-08-20T05:56:42.660Z,99315.35
2018-08-20T05:59:11.041Z,99317.54
2018-08-20T06:01:39.314Z,99323.84
2018-08-20T06:04:07.662Z,99318.88
2018-08-20T06:06:35.994Z,99318.52
2018-08-20T06:09:05.282Z,99322.66
2018-08-20T06:11:33.802Z,99331.46
2018-08-20T06:14:02.182Z,99329.31
2018-08-20T06:16:30.487Z,99335.96
2018-08-20T06:18:58.895Z,99340.78
2018-08-20T06:21:27.246Z,99337.77
2018-08-20T06:23:55.591Z,99339.45
2018-08-20T06:26:23.899Z,99345.76
2018-08-20T06:28:52.199Z,99348.77
2018-08-20T06:31:20.494Z,99349.75
2018-08-20T06:33:48.858Z,99355.94
2018-08-20T06:36:17.211Z,99349.88
2018-08-20T06:38:45.541Z,99363.67
2018-08-20T06:41:13.877Z,99358.00
2018-08-20T06:43:42.221Z,99358.00
2018-08-20T06:46:17.145Z,99354.97
2018-08-20T06:48:45.502Z,99366.47
2018-08-20T06:51:13.825Z,99358.95
2018-08-20T06:53:42.130Z,99372.27
2018-08-20T06:56:10.471Z,99370.94
2018-08-20T06:58:38.765Z,99366.13
2018-08-20T07:01:07.335Z,99375.91
2018-08-20T07:03:35.687Z,99373.25
2018-08-20T07:06:04.049Z,99375.44
2018-08-20T07:08:32.383Z,99388.75
2018-08-20T07:11:00.703Z,99391.89
2018-08-20T07:13:35.094Z,99393.22
2018-08-20T07:16:03.503Z,99387.52
2018-08-20T07:18:31.854Z,99386.19
2018-08-20T07:21:00.231Z,99379.05
2018-08-20T07:23:29.074Z,99384.86
2018-08-20T07:25:57.426Z,99392.37
2018-08-20T07:28:25.786Z,99395.03
2018-08-20T07:30:54.098Z,99398.55
2018-08-20T07:33:22.450Z,99396.36
2018-08-20T07:35:50.764Z,99403.88
2018-08-20T07:38:19.091Z,99401.20
2018-08-20T07:40:47.378Z,99395.51
2018-08-20T07:43:15.715Z,99394.17
2018-08-20T07:45:44.041Z,99395.16
2018-08-20T07:48:12.375Z,99400.96
2018-08-20T07:50:40.715Z,99415.00
2018-08-20T07:53:09.046Z,99412.47
2018-08-20T07:55:37.436Z,99411.13
2018-08-20T07:58:06.230Z,99408.47
2018-08-20T08:00:34.562Z,99408.13
2018-08-20T08:03:02.885Z,99412.94
2018-08-20T08:05:31.224Z,99407.14
2018-08-20T08:07:59.532Z,99410.28
2018-08-20T08:10:27.856Z,99413.80
2018-08-20T08:12:56.174Z,99415.98
2018-08-20T08:15:24.503Z,99417.31
2018-08-20T08:17:52.790Z,99418.64
2018-08-20T08:20:21.107Z,99420.45
2018-08-20T08:22:49.536Z,99421.78
2018-08-20T08:25:17.850Z,99417.44
2018-08-20T08:27:46.155Z,99423.59
2018-08-20T08:30:16.715Z,99420.80
2018-08-20T08:32:45.195Z,99424.31
2018-08-20T08:35:14.107Z,99426.12
2018-08-20T08:37:42.547Z,99415.61
2018-08-20T08:40:12.354Z,99422.64
2018-08-20T08:42:40.730Z,99417.79
2018-08-20T08:45:13.379Z,99422.13
2018-08-20T08:47:42.807Z,99425.78
2018-08-20T08:50:11.321Z,99420.33
2018-08-20T08:52:39.644Z,99420.80
2018-08-20T08:55:08.522Z,99422.13
2018-08-20T08:57:37.539Z,99426.03
2018-08-20T09:00:08.714Z,99422.52
2018-08-20T09:02:37.064Z,99421.18
2018-08-20T09:05:06.407Z,99425.52
2018-08-20T09:07:34.697Z,99431.83
2018-08-20T09:10:03.095Z,99430.37
2018-08-20T09:12:31.473Z,99430.37
2018-08-20T09:14:59.794Z,99428.69
2018-08-20T09:17:28.111Z,99432.18
2018-08-20T09:19:56.402Z,99434.36
2018-08-20T09:22:24.686Z,99427.36
2018-08-20T09:24:52.998Z,99427.70
2018-08-20T09:27:21.278Z,99435.69
2018-08-20T09:29:49.607Z,99440.89
2018-08-20T09:32:18.002Z,99440.89
2018-08-20T09:34:46.274Z,99442.70
2018-08-20T09:37:14.717Z,99436.42
2018-08-20T09:39:43.055Z,99441.75
2018-08-20T09:42:11.375Z,99443.91
2018-08-20T09:44:39.702Z,99444.76
2018-08-20T09:47:08.023Z,99443.42
2018-08-20T09:49:36.322Z,99444.76
2018-08-20T09:52:04.937Z,99439.91
2018-08-20T09:54:33.311Z,99438.58
2018-08-20T09:57:01.666Z,99434.48
2018-08-20T09:59:30.150Z,99432.64
2018-08-20T10:01:58.535Z,99435.81
2018-08-20T10:04:26.813Z,99444.63
2018-08-20T10:06:55.117Z,99446.47
2018-08-20T10:09:23.496Z,99442.82
2018-08-20T10:11:51.774Z,99440.16
2018-08-20T10:14:20.138Z,99437.02
2018-08-20T10:16:48.462Z,99439.68
2018-08-20T10:19:16.849Z,99440.16
2018-08-20T10:21:45.192Z,99443.30
2018-08-20T10:24:13.554Z,99439.68
2018-08-20T10:26:41.807Z,99443.67
2018-08-20T10:29:10.090Z,99444.02
2018-08-20T10:31:38.354Z,99453.34
2018-08-20T10:34:06.926Z,99450.68
2018-08-20T10:36:35.183Z,99453.22
2018-08-20T10:39:03.594Z,99459.87
2018-08-20T10:41:31.988Z,99460.73
2018-08-20T10:44:00.255Z,99455.40
2018-08-20T10:46:28.546Z,99456.26
2018-08-20T10:48:57.819Z,99454.92
2018-08-20T10:51:26.353Z,99456.95
2018-08-20T10:53:55.094Z,99459.61
2018-08-20T10:56:23.537Z,99456.12
2018-08-20T10:58:51.967Z,99456.61
2018-08-20T11:01:20.322Z,99460.13
2018-08-20T11:04:02.970Z,99458.28
2018-08-20T11:06:31.314Z,99456.12
2018-08-20T11:09:00.059Z,99461.83
2018-08-20T11:11:28.385Z,99460.13
2018-08-20T11:13:56.667Z,99456.95
2018-08-20T11:16:24.930Z,99460.50
2018-08-20T11:18:53.354Z,99458.69
2018-08-20T11:21:21.598Z,99462.21
2018-08-20T11:23:49.859Z,99462.21
2018-08-20T11:26:18.111Z,99456.03
2018-08-20T11:28:46.368Z,99463.16
2018-08-20T11:31:14.603Z,99460.50
2018-08-20T11:33:42.859Z,99459.17
2018-08-20T11:36:11.138Z,99460.50
2018-08-20T11:38:39.497Z,99456.03
2018-08-20T11:41:07.751Z,99459.55
2018-08-20T11:43:36.011Z,99460.88
2018-08-20T11:46:04.291Z,99457.71
2018-08-20T11:48:32.582Z,99459.90
2018-08-20T11:51:00.862Z,99451.91
2018-08-20T11:53:29.183Z,99454.57
2018-08-20T11:55:57.469Z,99449.59
2018-08-20T11:58:25.723Z,99451.91
2018-08-20T12:00:54.007Z,99457.58
2018-08-20T12:03:22.275Z,99451.30
2018-08-20T12:05:50.507Z,99458.91
2018-08-20T12:08:18.787Z,99454.44
2018-08-20T12:10:47.067Z,99458.91
2018-08-20T12:13:15.355Z,99453.11
2018-08-20T12:15:43.626Z,99455.30
2018-08-20T12:18:11.931Z,99459.16
2018-08-20T12:20:40.170Z,99463.63
2018-08-20T12:23:08.527Z,99462.68
2018-08-20T12:25:36.799Z,99457.36
2018-08-20T12:28:05.195Z,99460.02
2018-08-20T12:30:33.455Z,99458.69
2018-08-20T12:33:01.742Z,99460.02
2018-08-20T12:35:30.014Z,99459.03
2018-08-20T12:37:58.266Z,99455.89
2018-08-20T12:40:26.689Z,99452.24
2018-08-20T12:42:55.047Z,99453.58
2018-08-20T12:45:23.303Z,99454.91
2018-08-20T12:47:51.547Z,99453.10
2018-08-20T12:50:19.797Z,99453.92
2018-08-20T12:52:48.086Z,99458.91
2018-08-20T12:55:16.362Z,99461.44
2018-08-20T12:57:44.818Z,99457.44
2018-08-20T13:00:13.088Z,99458.30
2018-08-20T13:02:41.438Z,99454.30
2018-08-20T13:05:09.742Z,99456.11
2018-08-20T13:07:38.046Z,99455.63
2018-08-20T13:10:06.531Z,99452.49
2018-08-20T13:12:34.783Z,99458.64
2018-08-20T13:15:03.111Z,99453.19
2018-08-20T13:17:31.527Z,99450.90
2018-08-20T13:19:59.848Z,99455.85
2018-08-20T13:22:28.144Z,99449.57
2018-08-20T13:24:56.467Z,99449.06
2018-08-20T13:27:24.755Z,99443.26
2018-08-20T13:29:53.083Z,99440.12
2018-08-20T13:32:21.467Z,99438.78
2018-08-20T13:34:49.783Z,99445.66
2018-08-20T13:37:18.093Z,99438.17
2018-08-20T13:39:46.586Z,99438.52
2018-08-20T13:42:14.842Z,99432.34
2018-08-20T13:44:43.122Z,99432.72
2018-08-20T13:47:11.394Z,99433.92
2018-08-20T13:49:39.747Z,99426.78
2018-08-20T13:52:08.054Z,99422.28
2018-08-20T13:54:36.338Z,99434.64
2018-08-20T13:57:04.627Z,99442.13
2018-08-20T13:59:32.870Z,99434.64
2018-08-20T14:02:01.212Z,99434.03
2018-08-20T14:04:29.483Z,99432.70
2018-08-20T14:06:57.778Z,99429.53
2018-08-20T14:09:26.049Z,99430.73
2018-08-20T14:11:54.338Z,99420.93
2018-08-20T14:14:22.647Z,99420.58
2018-08-20T14:16:50.922Z,99422.61
2018-08-20T14:19:19.206Z,99418.61
2018-08-20T14:21:48.386Z,99417.66
2018-08-20T14:24:16.650Z,99419.84
2018-08-20T14:26:44.930Z,99418.00
2018-08-20T14:29:13.207Z,99414.86
2018-08-20T14:31:41.514Z,99418.00
2018-08-20T14:34:09.755Z,99417.39
2018-08-20T14:36:38.199Z,99418.38
2018-08-20T14:39:07.206Z,99417.05
2018-08-20T14:41:35.653Z,99419.20
2018-08-20T14:44:03.913Z,99421.05
2018-08-20T14:46:32.186Z,99414.73
2018-08-20T14:49:00.569Z,99409.40
2018-08-20T14:51:28.991Z,99411.59
2018-08-20T14:53:57.255Z,99410.25
2018-08-20T14:56:25.588Z,99406.73
2018-08-20T14:58:53.856Z,99403.11
2018-08-20T15:01:22.239Z,99403.11
2018-08-20T15:03:50.558Z,99404.45
2018-08-20T15:06:19.827Z,99400.45
2018-08-20T15:08:48.242Z,99401.66
2018-08-20T15:11:16.631Z,99403.94
2018-08-20T15:13:44.993Z,99398.48
2018-08-20T15:16:13.307Z,99406.47
2018-08-20T15:18:41.614Z,99400.66
2018-08-20T15:21:10.118Z,99402.84
2018-08-20T15:23:38.431Z,99402.84
2018-08-20T15:26:06.727Z,99397.02
2018-08-20T15:28:35.267Z,99397.02
2018-08-20T15:31:04.215Z,99392.53
2018-08-20T15:33:32.547Z,99396.91
2018-08-20T15:36:00.910Z,99392.19
2018-08-20T15:38:29.299Z,99396.53
2018-08-20T15:40:57.683Z,99400.53
2018-08-20T15:43:26.046Z,99399.06
2018-08-20T15:45:54.347Z,99402.72
2018-08-20T15:48:22.702Z,99410.58
2018-08-20T15:50:51.851Z,99403.92
2018-08-20T15:53:20.299Z,99394.75
2018-08-20T15:55:48.634Z,99405.59
2018-08-20T15:58:16.919Z,99414.92
2018-08-20T16:00:45.244Z,99405.11
2018-08-20T16:03:13.556Z,99406.45
2018-08-20T16:05:41.967Z,99400.27
2018-08-20T16:08:10.364Z,99398.80
2018-08-20T16:10:38.694Z,99405.46
2018-08-20T16:13:07.166Z,99409.84
2018-08-20T16:15:35.483Z,99402.31
2018-08-20T16:18:03.786Z,99408.02
2018-08-20T16:20:32.090Z,99401.84
2018-08-20T16:23:00.470Z,99398.32
2018-08-20T16:25:28.750Z,99394.33
2018-08-20T16:27:57.038Z,99396.13
2018-08-20T16:30:25.339Z,99394.70
2018-08-20T16:32:53.907Z,99396.38
2018-08-20T16:35:22.231Z,99397.84
2018-08-20T16:37:50.587Z,99397.84
2018-08-20T16:40:18.909Z,99393.37
2018-08-20T16:42:47.238Z,99396.86
2018-08-20T16:45:15.619Z,99392.38
2018-08-20T16:47:43.982Z,99395.52
2018-08-20T16:50:13.366Z,99394.70
2018-08-20T16:52:42.186Z,99392.03
2018-08-20T16:55:10.816Z,99390.70
2018-08-20T16:57:39.183Z,99390.33
2018-08-20T17:00:09.442Z,99393.37
2018-08-20T17:02:39.810Z,99395.17
2018-08-20T17:05:09.214Z,99389.47
2018-08-20T17:07:37.588Z,99389.39
2018-08-20T17:10:07.194Z,99391.31
2018-08-20T17:12:35.678Z,99384.66
2018-08-20T17:15:04.775Z,99392.64
2018-08-20T17:17:33.106Z,99390.80
2018-08-20T17:20:01.380Z,99385.47
2018-08-20T17:22:29.687Z,99386.81
2018-08-20T17:24:58.062Z,99390.46
2018-08-20T17:27:27.104Z,99393.60
2018-08-20T17:29:56.255Z,99401.97
2018-08-20T17:32:24.707Z,99400.13
2018-08-20T17:34:52.999Z,99399.66
2018-08-20T17:37:21.415Z,99403.30
2018-08-20T17:39:59.307Z,99392.27
2018-08-20T17:42:28.928Z,99398.45
2018-08-20T17:44:57.490Z,99402.45
2018-08-20T17:47:26.834Z,99401.59
2018-08-20T17:49:56.316Z,99397.25
2018-08-20T17:52:32.762Z,99401.25
2018-08-20T17:55:03.797Z,99398.24
2018-08-20T17:57:32.223Z,99393.39
2018-08-20T18:00:43.522Z,99404.05
2018-08-20T18:03:18.178Z,99404.19
2018-08-20T18:06:07.548Z,99398.48
2018-08-20T18:08:36.035Z,99398.61
2018-08-20T18:11:05.176Z,99402.98
2018-08-20T18:13:40.817Z,99403.94
2018-08-20T18:16:12.130Z,99408.79
2018-08-20T18:18:41.667Z,99405.78
2018-08-20T18:21:09.959Z,99408.79
2018-08-20T18:23:38.533Z,99415.92
2018-08-20T18:26:06.886Z,99413.77
2018-08-20T18:28:42.131Z,99412.06
2018-08-20T18:31:13.243Z,99406.73
2018-08-20T18:33:42.505Z,99410.73
2018-08-20T18:36:16.997Z,99408.55
2018-08-20T18:39:01.067Z,99414.25
2018-08-20T18:42:39.434Z,99414.38
2018-08-20T18:45:07.774Z,99424.66
2018-08-20T18:47:36.051Z,99416.80
2018-08-20T18:50:04.404Z,99425.99
2018-08-20T18:52:32.864Z,99431.33
2018-08-20T18:55:01.254Z,99425.17
2018-08-20T18:57:34.519Z,99442.84
2018-08-20T19:00:04.734Z,99433.64
2018-08-20T19:02:37.589Z,99439.31
2018-08-20T19:05:13.803Z,99441.98
2018-08-20T19:07:42.463Z,99445.16
2018-08-20T19:10:16.279Z,99447.44
2018-08-20T19:12:45.018Z,99446.97
2018-08-20T19:15:24.927Z,99448.43
2018-08-20T19:17:53.485Z,99449.25
2018-08-20T19:20:21.850Z,99448.43
2018-08-20T19:22:50.220Z,99447.57
2018-08-20T19:25:18.655Z,99448.91
2018-08-20T19:27:46.959Z,99448.43
2018-08-20T19:30:21.186Z,99450.23
2018-08-20T19:32:49.526Z,99452.55
2018-08-20T19:35:17.894Z,99452.05
2018-08-20T19:37:46.310Z,99452.55
2018-08-20T19:40:14.766Z,99439.86
2018-08-20T19:42:43.120Z,99447.70
2018-08-20T19:45:12.615Z,99452.55
2018-08-20T19:47:40.990Z,99451.22
2018-08-20T19:50:10.982Z,99451.22
2018-08-20T19:52:39.566Z,99445.04
2018-08-20T19:55:11.100Z,99447.36
2018-08-20T19:57:39.487Z,99447.36
2018-08-20T20:00:11.316Z,99450.02
2018-08-20T20:02:41.240Z,99448.79
2018-08-20T20:05:12.935Z,99447.45
2018-08-20T20:07:45.875Z,99446.25
2018-08-20T20:10:14.226Z,99451.11
2018-08-20T20:12:47.686Z,99447.59
2018-08-20T20:15:16.059Z,99448.92
2018-08-20T20:17:44.452Z,99453.42
2018-08-20T20:20:12.710Z,99457.77
2018-08-20T20:22:41.298Z,99452.09
2018-08-20T20:25:09.730Z,99461.03
2018-08-20T20:27:38.118Z,99457.04
2018-08-20T20:30:07.282Z,99454.38
2018-08-20T20:32:35.714Z,99449.56
2018-08-20T20:35:04.446Z,99448.70
2018-08-20T20:37:32.834Z,99454.03
2018-08-20T20:40:02.862Z,99454.03
2018-08-20T20:42:31.646Z,99458.03
2018-08-20T20:45:00.052Z,99462.97
2018-08-20T20:47:28.598Z,99461.64
2018-08-20T20:49:57.154Z,99459.63
2018-08-20T20:52:25.519Z,99462.28
2018-08-20T20:54:54.038Z,99460.95
2018-08-20T20:57:22.330Z,99467.23
2018-08-20T20:59:50.715Z,99469.42
2018-08-20T21:02:19.086Z,99475.60
2018-08-20T21:04:47.421Z,99474.75
2018-08-20T21:07:20.370Z,99476.20
2018-08-20T21:09:49.383Z,99471.36
2018-08-20T21:12:18.566Z,99471.01
2018-08-20T21:14:47.026Z,99472.34
2018-08-20T21:17:15.455Z,99475.35
2018-08-20T21:19:44.636Z,99472.81
2018-08-20T21:22:13.002Z,99475.48
2018-08-20T21:24:41.390Z,99474.63
2018-08-20T21:27:15.540Z,99476.47
2018-08-20T21:29:43.938Z,99475.95
2018-08-20T21:32:12.303Z,99483.13
2018-08-20T21:34:42.162Z,99485.79
2018-08-20T21:37:11.010Z,99482.75
2018-08-20T21:39:39.771Z,99481.41
2018-08-20T21:42:08.320Z,99485.54
2018-08-20T21:44:36.789Z,99491.21
2018-08-20T21:47:16.122Z,99484.20
2018-08-20T21:49:44.458Z,99487.72
2018-08-20T21:52:13.324Z,99484.69
2018-08-20T21:54:41.706Z,99482.66
2018-08-20T21:57:10.055Z,99482.66
2018-08-20T21:59:39.018Z,99484.69
2018-08-20T22:02:07.492Z,99484.81
2018-08-20T22:04:35.917Z,99488.80
2018-08-20T22:07:04.355Z,99485.80
2018-08-20T22:09:32.726Z,99489.41
2018-08-20T22:12:01.159Z,99499.97
2018-08-20T22:14:29.578Z,99499.24
2018-08-20T22:16:57.995Z,99497.91
2018-08-20T22:19:26.370Z,99497.40
2018-08-20T22:21:54.862Z,99494.39
2018-08-20T22:24:23.278Z,99497.53
2018-08-20T22:26:56.971Z,99492.71
2018-08-20T22:29:29.606Z,99494.87
2018-08-20T22:31:58.100Z,99500.19
2018-08-20T22:34:27.837Z,99498.52
2018-08-20T22:37:02.679Z,99499.50
2018-08-20T22:39:31.183Z,99495.12
2018-08-20T22:41:59.498Z,99497.18
2018-08-20T22:44:27.818Z,99495.98
2018-08-20T22:46:56.255Z,99492.84
2018-08-20T22:49:24.627Z,99492.84
2018-08-20T22:51:52.987Z,99491.98
2018-08-20T22:59:20.603Z,99494.14
2018-08-20T23:01:48.898Z,99493.89
2018-08-20T23:04:17.286Z,99492.21
2018-08-20T23:06:45.641Z,99495.09
2018-08-20T23:09:25.744Z,99494.27
2018-08-20T23:11:54.458Z,99495.95
2018-08-20T23:14:22.838Z,99498.48
2018-08-20T23:16:52.049Z,99498.96
2018-08-20T23:19:20.427Z,99502.35
2018-08-20T23:21:49.523Z,99494.97
2018-08-20T23:24:18.152Z,99500.67
2018-08-20T23:26:46.503Z,99499.69
2018-08-20T23:29:14.862Z,99503.33
2018-08-20T23:31:43.207Z,99502.35
2018-08-20T23:34:13.250Z,99499.34
2018-08-20T23:36:42.183Z,99496.67
2018-08-20T23:39:13.513Z,99494.97
2018-08-20T23:41:42.158Z,99498.96
2018-08-20T23:44:10.700Z,99496.80
2018-08-20T23:46:44.091Z,99498.96
2018-08-20T23:49:12.491Z,99498.27
2018-08-20T23:51:40.901Z,99500.29
2018-08-20T23:54:10.237Z,99496.42
2018-08-20T23:56:38.672Z,99500.92
2018-08-20T23:59:07.093Z,99503.59
